sensor_id;sensor_type;location;lat;lon;timestamp;temperature;humidity
8420;DHT22;4247;48.550;8.822;2023-05-10T00:00:38;14.10;99.90
8420;DHT22;4247;48.550;8.822;2023-05-10T00:03:05;14.10;99.90
8420;DHT22;4247;48.550;8.822;2023-05-10T00:05:33;14.10;99.90
8420;DHT22;4247;48.550;8.822;2023-05-10T00:08:00;14.00;99.90
8420;DHT22;4247;48.550;8.822;2023-05-10T00:10:27;13.90;99.90
8420;DHT22;4247;48.550;8.822;2023-05-10T00:12:53;13.90;99.90
8420;DHT22;4247;48.550;8.822;2023-05-10T00:15:20;13.80;99.90
8420;DHT22;4247;48.550;8.822;2023-05-10T00:17:47;13.70;99.90
8420;DHT22;4247;48.550;8.822;2023-05-10T00:20:13;13.70;99.90
8420;DHT22;4247;48.550;8.822;2023-05-10T00:22:41;13.60;99.90
8420;DHT22;4247;48.550;8.822;2023-05-10T00:25:09;13.60;99.90
8420;DHT22;4247;48.550;8.822;2023-05-10T00:27:35;13.60;99.90
8420;DHT22;4247;48.550;8.822;2023-05-10T00:30:02;13.50;99.90
8420;DHT22;4247;48.550;8.822;2023-05-10T00:32:29;13.50;99.90
8420;DHT22;4247;48.550;8.822;2023-05-10T00:34:56;13.50;99.90
8420;DHT22;4247;48.550;8.822;2023-05-10T00:37:23;13.50;99.90
8420;DHT22;4247;48.550;8.822;2023-05-10T00:39:51;13.40;99.90
8420;DHT22;4247;48.550;8.822;2023-05-10T00:42:17;13.30;99.90
8420;DHT22;4247;48.550;8.822;2023-05-10T00:44:44;13.30;99.90
8420;DHT22;4247;48.550;8.822;2023-05-10T00:47:12;13.30;99.90
8420;DHT22;4247;48.550;8.822;2023-05-10T00:49:38;13.30;99.90
8420;DHT22;4247;48.550;8.822;2023-05-10T00:52:06;13.30;99.90
8420;DHT22;4247;48.550;8.822;2023-05-10T00:54:32;13.30;99.90
8420;DHT22;4247;48.550;8.822;2023-05-10T00:57:01;13.20;99.90
8420;DHT22;4247;48.550;8.822;2023-05-10T00:59:29;13.20;99.90
8420;DHT22;4247;48.550;8.822;2023-05-10T01:01:56;13.20;99.90
8420;DHT22;4247;48.550;8.822;2023-05-10T01:04:23;13.20;99.90
8420;DHT22;4247;48.550;8.822;2023-05-10T01:06:51;13.20;99.90
8420;DHT22;4247;48.550;8.822;2023-05-10T01:09:18;13.20;99.90
8420;DHT22;4247;48.550;8.822;2023-05-10T01:11:45;13.20;99.90
8420;DHT22;4247;48.550;8.822;2023-05-10T01:14:13;13.20;99.90
8420;DHT22;4247;48.550;8.822;2023-05-10T01:16:42;13.20;99.90
8420;DHT22;4247;48.550;8.822;2023-05-10T01:19:14;13.20;99.90
8420;DHT22;4247;48.550;8.822;2023-05-10T01:21:48;13.20;99.90
8420;DHT22;4247;48.550;8.822;2023-05-10T01:24:40;13.10;99.90
8420;DHT22;4247;48.550;8.822;2023-05-10T01:27:36;13.10;99.90
8420;DHT22;4247;48.550;8.822;2023-05-10T01:30:35;13.10;99.90
8420;DHT22;4247;48.550;8.822;2023-05-10T01:33:11;13.10;99.90
8420;DHT22;4247;48.550;8.822;2023-05-10T01:35:45;13.00;99.90
8420;DHT22;4247;48.550;8.822;2023-05-10T01:38:18;13.00;99.90
8420;DHT22;4247;48.550;8.822;2023-05-10T01:40:52;13.10;99.90
8420;DHT22;4247;48.550;8.822;2023-05-10T01:43:23;13.10;99.90
8420;DHT22;4247;48.550;8.822;2023-05-10T01:46:00;13.10;99.90
8420;DHT22;4247;48.550;8.822;2023-05-10T01:48:36;13.10;99.90
8420;DHT22;4247;48.550;8.822;2023-05-10T01:51:05;13.10;99.90
8420;DHT22;4247;48.550;8.822;2023-05-10T01:53:33;13.10;99.90
8420;DHT22;4247;48.550;8.822;2023-05-10T01:56:03;13.10;99.90
8420;DHT22;4247;48.550;8.822;2023-05-10T01:58:31;13.10;99.90
8420;DHT22;4247;48.550;8.822;2023-05-10T02:01:01;13.10;99.90
8420;DHT22;4247;48.550;8.822;2023-05-10T02:03:31;13.10;99.90
8420;DHT22;4247;48.550;8.822;2023-05-10T02:06:00;13.20;99.90
8420;DHT22;4247;48.550;8.822;2023-05-10T02:08:27;13.20;99.90
8420;DHT22;4247;48.550;8.822;2023-05-10T02:10:55;13.20;99.90
8420;DHT22;4247;48.550;8.822;2023-05-10T02:13:23;13.10;99.90
8420;DHT22;4247;48.550;8.822;2023-05-10T02:15:51;13.20;99.90
8420;DHT22;4247;48.550;8.822;2023-05-10T02:18:19;13.10;99.90
8420;DHT22;4247;48.550;8.822;2023-05-10T02:20:47;13.10;99.90
8420;DHT22;4247;48.550;8.822;2023-05-10T02:23:17;13.00;99.90
8420;DHT22;4247;48.550;8.822;2023-05-10T02:25:44;13.00;99.90
8420;DHT22;4247;48.550;8.822;2023-05-10T02:28:12;13.00;99.90
8420;DHT22;4247;48.550;8.822;2023-05-10T02:30:41;13.00;99.90
8420;DHT22;4247;48.550;8.822;2023-05-10T02:33:08;12.90;99.90
8420;DHT22;4247;48.550;8.822;2023-05-10T02:35:36;12.90;99.90
8420;DHT22;4247;48.550;8.822;2023-05-10T02:38:04;12.90;99.90
8420;DHT22;4247;48.550;8.822;2023-05-10T02:40:33;13.00;99.90
8420;DHT22;4247;48.550;8.822;2023-05-10T02:43:02;13.00;99.90
8420;DHT22;4247;48.550;8.822;2023-05-10T02:45:31;13.00;99.90
8420;DHT22;4247;48.550;8.822;2023-05-10T02:47:58;13.00;99.90
8420;DHT22;4247;48.550;8.822;2023-05-10T02:50:28;13.00;99.90
8420;DHT22;4247;48.550;8.822;2023-05-10T02:53:00;13.00;99.90
8420;DHT22;4247;48.550;8.822;2023-05-10T02:55:32;13.00;99.90
8420;DHT22;4247;48.550;8.822;2023-05-10T02:58:02;13.00;99.90
8420;DHT22;4247;48.550;8.822;2023-05-10T03:00:29;13.00;99.90
8420;DHT22;4247;48.550;8.822;2023-05-10T03:02:56;13.00;99.90
8420;DHT22;4247;48.550;8.822;2023-05-10T03:05:22;13.00;99.90
8420;DHT22;4247;48.550;8.822;2023-05-10T03:07:50;13.00;99.90
8420;DHT22;4247;48.550;8.822;2023-05-10T03:10:17;13.10;99.90
8420;DHT22;4247;48.550;8.822;2023-05-10T03:12:58;13.10;99.90
8420;DHT22;4247;48.550;8.822;2023-05-10T03:15:33;13.10;99.90
8420;DHT22;4247;48.550;8.822;2023-05-10T03:18:07;13.10;99.90
8420;DHT22;4247;48.550;8.822;2023-05-10T03:20:36;13.10;99.90
8420;DHT22;4247;48.550;8.822;2023-05-10T03:23:07;13.10;99.90
8420;DHT22;4247;48.550;8.822;2023-05-10T03:25:37;13.10;99.90
8420;DHT22;4247;48.550;8.822;2023-05-10T03:28:07;13.10;99.90
8420;DHT22;4247;48.550;8.822;2023-05-10T03:30:34;13.10;99.90
8420;DHT22;4247;48.550;8.822;2023-05-10T03:33:04;13.10;99.90
8420;DHT22;4247;48.550;8.822;2023-05-10T03:35:31;13.10;99.90
8420;DHT22;4247;48.550;8.822;2023-05-10T03:37:58;13.10;99.90
8420;DHT22;4247;48.550;8.822;2023-05-10T03:40:25;13.10;99.90
8420;DHT22;4247;48.550;8.822;2023-05-10T03:42:54;13.10;99.90
8420;DHT22;4247;48.550;8.822;2023-05-10T03:45:22;13.10;99.90
8420;DHT22;4247;48.550;8.822;2023-05-10T03:47:48;13.10;99.90
8420;DHT22;4247;48.550;8.822;2023-05-10T03:50:15;13.10;99.90
8420;DHT22;4247;48.550;8.822;2023-05-10T03:52:42;13.10;99.90
8420;DHT22;4247;48.550;8.822;2023-05-10T03:55:09;13.10;99.90
8420;DHT22;4247;48.550;8.822;2023-05-10T03:57:36;13.10;99.90
8420;DHT22;4247;48.550;8.822;2023-05-10T04:00:03;13.10;99.90
8420;DHT22;4247;48.550;8.822;2023-05-10T04:02:32;13.00;99.90
8420;DHT22;4247;48.550;8.822;2023-05-10T04:04:58;13.00;99.90
8420;DHT22;4247;48.550;8.822;2023-05-10T04:07:25;13.00;99.90
8420;DHT22;4247;48.550;8.822;2023-05-10T04:09:52;13.00;99.90
8420;DHT22;4247;48.550;8.822;2023-05-10T04:12:19;13.00;99.90
8420;DHT22;4247;48.550;8.822;2023-05-10T04:14:45;13.00;99.90
8420;DHT22;4247;48.550;8.822;2023-05-10T04:17:12;13.00;99.90
8420;DHT22;4247;48.550;8.822;2023-05-10T04:19:40;13.00;99.90
8420;DHT22;4247;48.550;8.822;2023-05-10T04:22:07;13.00;99.90
8420;DHT22;4247;48.550;8.822;2023-05-10T04:24:33;13.00;99.90
8420;DHT22;4247;48.550;8.822;2023-05-10T04:27:00;13.00;99.90
8420;DHT22;4247;48.550;8.822;2023-05-10T04:29:27;13.00;99.90
8420;DHT22;4247;48.550;8.822;2023-05-10T04:31:54;13.00;99.90
8420;DHT22;4247;48.550;8.822;2023-05-10T04:34:22;13.00;99.90
8420;DHT22;4247;48.550;8.822;2023-05-10T04:36:50;13.00;99.90
8420;DHT22;4247;48.550;8.822;2023-05-10T04:39:16;13.00;99.90
8420;DHT22;4247;48.550;8.822;2023-05-10T04:41:43;13.00;99.90
8420;DHT22;4247;48.550;8.822;2023-05-10T04:44:10;13.10;99.90
8420;DHT22;4247;48.550;8.822;2023-05-10T04:46:36;13.10;99.90
8420;DHT22;4247;48.550;8.822;2023-05-10T04:49:03;13.10;99.90
8420;DHT22;4247;48.550;8.822;2023-05-10T04:51:30;13.10;99.90
8420;DHT22;4247;48.550;8.822;2023-05-10T04:53:58;13.10;99.90
8420;DHT22;4247;48.550;8.822;2023-05-10T04:56:25;13.10;99.90
8420;DHT22;4247;48.550;8.822;2023-05-10T04:58:51;13.10;99.90
8420;DHT22;4247;48.550;8.822;2023-05-10T05:01:18;13.20;99.90
8420;DHT22;4247;48.550;8.822;2023-05-10T05:03:45;13.20;99.90
8420;DHT22;4247;48.550;8.822;2023-05-10T05:06:11;13.10;99.90
8420;DHT22;4247;48.550;8.822;2023-05-10T05:08:38;13.10;99.90
8420;DHT22;4247;48.550;8.822;2023-05-10T05:11:06;13.10;99.90
8420;DHT22;4247;48.550;8.822;2023-05-10T05:13:33;13.10;99.90
8420;DHT22;4247;48.550;8.822;2023-05-10T05:16:00;13.10;99.90
8420;DHT22;4247;48.550;8.822;2023-05-10T05:18:28;13.10;99.90
8420;DHT22;4247;48.550;8.822;2023-05-10T05:20:54;13.10;99.90
8420;DHT22;4247;48.550;8.822;2023-05-10T05:23:21;13.20;99.90
8420;DHT22;4247;48.550;8.822;2023-05-10T05:25:51;13.20;99.90
8420;DHT22;4247;48.550;8.822;2023-05-10T05:28:19;13.20;99.90
8420;DHT22;4247;48.550;8.822;2023-05-10T05:30:46;13.20;99.90
8420;DHT22;4247;48.550;8.822;2023-05-10T05:33:13;13.20;99.90
8420;DHT22;4247;48.550;8.822;2023-05-10T05:35:40;13.20;99.90
8420;DHT22;4247;48.550;8.822;2023-05-10T05:38:08;13.20;99.90
8420;DHT22;4247;48.550;8.822;2023-05-10T05:40:35;13.20;99.90
8420;DHT22;4247;48.550;8.822;2023-05-10T05:43:01;13.20;99.90
8420;DHT22;4247;48.550;8.822;2023-05-10T05:45:29;13.20;99.90
8420;DHT22;4247;48.550;8.822;2023-05-10T05:47:56;13.30;99.90
8420;DHT22;4247;48.550;8.822;2023-05-10T05:50:23;13.30;99.90
8420;DHT22;4247;48.550;8.822;2023-05-10T05:52:49;13.40;99.90
8420;DHT22;4247;48.550;8.822;2023-05-10T05:55:16;13.50;99.90
8420;DHT22;4247;48.550;8.822;2023-05-10T05:57:43;13.50;99.90
8420;DHT22;4247;48.550;8.822;2023-05-10T06:00:10;13.60;99.90
8420;DHT22;4247;48.550;8.822;2023-05-10T06:02:38;13.70;99.90
8420;DHT22;4247;48.550;8.822;2023-05-10T06:05:06;13.70;99.90
8420;DHT22;4247;48.550;8.822;2023-05-10T06:07:33;13.70;99.90
8420;DHT22;4247;48.550;8.822;2023-05-10T06:10:00;13.80;99.90
8420;DHT22;4247;48.550;8.822;2023-05-10T06:12:28;13.80;99.90
8420;DHT22;4247;48.550;8.822;2023-05-10T06:14:54;13.90;99.90
8420;DHT22;4247;48.550;8.822;2023-05-10T06:17:21;14.00;99.90
8420;DHT22;4247;48.550;8.822;2023-05-10T06:19:49;14.00;99.90
8420;DHT22;4247;48.550;8.822;2023-05-10T06:22:16;14.10;99.90
8420;DHT22;4247;48.550;8.822;2023-05-10T06:24:43;14.10;99.90
8420;DHT22;4247;48.550;8.822;2023-05-10T06:27:09;14.10;99.90
8420;DHT22;4247;48.550;8.822;2023-05-10T06:29:36;14.10;99.90
8420;DHT22;4247;48.550;8.822;2023-05-10T06:32:03;14.10;99.90
8420;DHT22;4247;48.550;8.822;2023-05-10T06:34:30;14.10;99.90
8420;DHT22;4247;48.550;8.822;2023-05-10T06:36:58;14.10;99.90
8420;DHT22;4247;48.550;8.822;2023-05-10T06:39:25;14.10;99.90
8420;DHT22;4247;48.550;8.822;2023-05-10T06:41:51;14.10;99.90
8420;DHT22;4247;48.550;8.822;2023-05-10T06:44:19;14.10;99.90
8420;DHT22;4247;48.550;8.822;2023-05-10T06:46:46;14.10;99.90
8420;DHT22;4247;48.550;8.822;2023-05-10T06:49:13;14.10;99.90
8420;DHT22;4247;48.550;8.822;2023-05-10T06:51:40;14.10;99.90
8420;DHT22;4247;48.550;8.822;2023-05-10T06:54:08;14.10;99.90
8420;DHT22;4247;48.550;8.822;2023-05-10T06:56:34;14.10;99.90
8420;DHT22;4247;48.550;8.822;2023-05-10T06:59:01;14.10;99.90
8420;DHT22;4247;48.550;8.822;2023-05-10T07:01:28;14.10;99.90
8420;DHT22;4247;48.550;8.822;2023-05-10T07:03:55;14.10;99.90
8420;DHT22;4247;48.550;8.822;2023-05-10T07:06:22;14.10;99.90
8420;DHT22;4247;48.550;8.822;2023-05-10T07:08:48;14.20;99.90
8420;DHT22;4247;48.550;8.822;2023-05-10T07:11:17;14.20;99.90
8420;DHT22;4247;48.550;8.822;2023-05-10T07:13:43;14.20;99.90
8420;DHT22;4247;48.550;8.822;2023-05-10T07:16:11;14.30;99.90
8420;DHT22;4247;48.550;8.822;2023-05-10T07:18:38;14.30;99.90
8420;DHT22;4247;48.550;8.822;2023-05-10T07:21:05;14.30;99.90
8420;DHT22;4247;48.550;8.822;2023-05-10T07:23:32;14.20;99.90
8420;DHT22;4247;48.550;8.822;2023-05-10T07:25:58;14.30;99.90
8420;DHT22;4247;48.550;8.822;2023-05-10T07:28:26;14.30;99.90
8420;DHT22;4247;48.550;8.822;2023-05-10T07:30:53;14.40;99.90
8420;DHT22;4247;48.550;8.822;2023-05-10T07:33:20;14.30;99.90
8420;DHT22;4247;48.550;8.822;2023-05-10T07:35:47;14.40;99.90
8420;DHT22;4247;48.550;8.822;2023-05-10T07:38:13;14.50;99.90
8420;DHT22;4247;48.550;8.822;2023-05-10T07:40:40;14.60;99.90
8420;DHT22;4247;48.550;8.822;2023-05-10T07:43:06;14.70;99.90
8420;DHT22;4247;48.550;8.822;2023-05-10T07:45:34;14.80;99.90
8420;DHT22;4247;48.550;8.822;2023-05-10T07:48:01;14.80;99.90
8420;DHT22;4247;48.550;8.822;2023-05-10T07:50:28;14.90;99.90
8420;DHT22;4247;48.550;8.822;2023-05-10T07:52:55;15.00;99.90
8420;DHT22;4247;48.550;8.822;2023-05-10T07:55:22;15.10;99.90
8420;DHT22;4247;48.550;8.822;2023-05-10T07:57:49;15.00;99.90
8420;DHT22;4247;48.550;8.822;2023-05-10T08:00:18;15.10;99.90
8420;DHT22;4247;48.550;8.822;2023-05-10T08:02:47;15.20;99.90
8420;DHT22;4247;48.550;8.822;2023-05-10T08:05:14;15.20;99.90
8420;DHT22;4247;48.550;8.822;2023-05-10T08:07:40;15.20;99.90
8420;DHT22;4247;48.550;8.822;2023-05-10T08:10:08;15.30;99.90
8420;DHT22;4247;48.550;8.822;2023-05-10T08:12:36;15.50;99.90
8420;DHT22;4247;48.550;8.822;2023-05-10T08:15:03;15.60;99.90
8420;DHT22;4247;48.550;8.822;2023-05-10T08:17:30;15.60;99.90
8420;DHT22;4247;48.550;8.822;2023-05-10T08:19:59;15.70;99.90
8420;DHT22;4247;48.550;8.822;2023-05-10T08:22:26;15.80;99.90
8420;DHT22;4247;48.550;8.822;2023-05-10T08:24:53;16.00;99.90
8420;DHT22;4247;48.550;8.822;2023-05-10T08:27:19;16.00;99.90
8420;DHT22;4247;48.550;8.822;2023-05-10T08:29:46;16.10;99.90
8420;DHT22;4247;48.550;8.822;2023-05-10T08:32:13;15.90;99.90
8420;DHT22;4247;48.550;8.822;2023-05-10T08:34:40;16.00;99.90
8420;DHT22;4247;48.550;8.822;2023-05-10T08:37:08;16.10;99.90
8420;DHT22;4247;48.550;8.822;2023-05-10T08:39:35;16.10;99.90
8420;DHT22;4247;48.550;8.822;2023-05-10T08:42:04;16.10;99.90
8420;DHT22;4247;48.550;8.822;2023-05-10T08:44:32;16.20;99.90
8420;DHT22;4247;48.550;8.822;2023-05-10T08:47:04;16.40;99.90
8420;DHT22;4247;48.550;8.822;2023-05-10T08:49:31;16.30;99.90
8420;DHT22;4247;48.550;8.822;2023-05-10T08:52:01;16.40;99.90
8420;DHT22;4247;48.550;8.822;2023-05-10T08:54:30;16.50;99.90
8420;DHT22;4247;48.550;8.822;2023-05-10T08:56:57;16.30;99.90
8420;DHT22;4247;48.550;8.822;2023-05-10T08:59:24;16.50;99.90
8420;DHT22;4247;48.550;8.822;2023-05-10T09:01:52;16.50;99.90
8420;DHT22;4247;48.550;8.822;2023-05-10T09:04:21;16.50;99.90
8420;DHT22;4247;48.550;8.822;2023-05-10T09:06:47;16.50;99.90
8420;DHT22;4247;48.550;8.822;2023-05-10T09:09:15;16.50;99.90
8420;DHT22;4247;48.550;8.822;2023-05-10T09:11:44;16.70;99.90
8420;DHT22;4247;48.550;8.822;2023-05-10T09:14:12;16.80;99.90
8420;DHT22;4247;48.550;8.822;2023-05-10T09:16:39;17.00;99.90
8420;DHT22;4247;48.550;8.822;2023-05-10T09:19:06;17.30;99.90
8420;DHT22;4247;48.550;8.822;2023-05-10T09:21:34;17.40;99.90
8420;DHT22;4247;48.550;8.822;2023-05-10T09:24:03;17.50;99.90
8420;DHT22;4247;48.550;8.822;2023-05-10T09:26:30;17.70;99.90
8420;DHT22;4247;48.550;8.822;2023-05-10T09:28:59;17.70;99.90
8420;DHT22;4247;48.550;8.822;2023-05-10T09:31:43;17.60;99.90
8420;DHT22;4247;48.550;8.822;2023-05-10T09:34:15;17.70;99.90
8420;DHT22;4247;48.550;8.822;2023-05-10T09:36:51;17.60;99.90
8420;DHT22;4247;48.550;8.822;2023-05-10T09:39:17;17.80;99.90
8420;DHT22;4247;48.550;8.822;2023-05-10T09:41:44;17.90;99.90
8420;DHT22;4247;48.550;8.822;2023-05-10T09:44:16;17.90;99.90
8420;DHT22;4247;48.550;8.822;2023-05-10T09:46:49;17.80;99.90
8420;DHT22;4247;48.550;8.822;2023-05-10T09:49:16;17.90;99.90
8420;DHT22;4247;48.550;8.822;2023-05-10T09:51:42;17.90;99.90
8420;DHT22;4247;48.550;8.822;2023-05-10T09:54:11;18.00;99.90
8420;DHT22;4247;48.550;8.822;2023-05-10T09:56:38;17.90;99.90
8420;DHT22;4247;48.550;8.822;2023-05-10T09:59:07;17.90;99.90
8420;DHT22;4247;48.550;8.822;2023-05-10T10:01:35;17.80;99.90
8420;DHT22;4247;48.550;8.822;2023-05-10T10:04:03;17.50;99.90
8420;DHT22;4247;48.550;8.822;2023-05-10T10:06:35;17.30;99.90
8420;DHT22;4247;48.550;8.822;2023-05-10T10:09:03;16.90;99.90
8420;DHT22;4247;48.550;8.822;2023-05-10T10:11:30;16.70;99.90
8420;DHT22;4247;48.550;8.822;2023-05-10T10:13:56;16.50;99.90
8420;DHT22;4247;48.550;8.822;2023-05-10T10:16:24;16.40;99.90
8420;DHT22;4247;48.550;8.822;2023-05-10T10:18:52;16.20;99.90
8420;DHT22;4247;48.550;8.822;2023-05-10T10:21:19;16.20;99.90
8420;DHT22;4247;48.550;8.822;2023-05-10T10:23:46;16.00;99.90
8420;DHT22;4247;48.550;8.822;2023-05-10T10:26:13;15.90;99.90
8420;DHT22;4247;48.550;8.822;2023-05-10T10:28:49;15.60;99.90
8420;DHT22;4247;48.550;8.822;2023-05-10T10:31:26;15.50;99.90
8420;DHT22;4247;48.550;8.822;2023-05-10T10:34:00;15.50;99.90
8420;DHT22;4247;48.550;8.822;2023-05-10T10:36:28;15.40;99.90
8420;DHT22;4247;48.550;8.822;2023-05-10T10:38:59;15.50;99.90
8420;DHT22;4247;48.550;8.822;2023-05-10T10:41:31;15.60;99.90
8420;DHT22;4247;48.550;8.822;2023-05-10T10:44:33;15.50;99.90
8420;DHT22;4247;48.550;8.822;2023-05-10T10:47:05;15.40;99.90
8420;DHT22;4247;48.550;8.822;2023-05-10T10:49:38;15.50;99.90
8420;DHT22;4247;48.550;8.822;2023-05-10T10:52:18;15.50;99.90
8420;DHT22;4247;48.550;8.822;2023-05-10T10:54:51;15.50;99.90
8420;DHT22;4247;48.550;8.822;2023-05-10T10:57:19;15.40;99.90
8420;DHT22;4247;48.550;8.822;2023-05-10T10:59:47;15.20;99.90
8420;DHT22;4247;48.550;8.822;2023-05-10T11:02:36;15.10;99.90
8420;DHT22;4247;48.550;8.822;2023-05-10T11:05:25;15.10;99.90
8420;DHT22;4247;48.550;8.822;2023-05-10T11:07:52;15.10;99.90
8420;DHT22;4247;48.550;8.822;2023-05-10T11:10:20;15.10;99.90
8420;DHT22;4247;48.550;8.822;2023-05-10T11:12:54;15.10;99.90
8420;DHT22;4247;48.550;8.822;2023-05-10T11:15:29;15.30;99.90
8420;DHT22;4247;48.550;8.822;2023-05-10T11:17:56;15.60;99.90
8420;DHT22;4247;48.550;8.822;2023-05-10T11:20:27;15.80;99.90
8420;DHT22;4247;48.550;8.822;2023-05-10T11:23:11;16.00;99.90
8420;DHT22;4247;48.550;8.822;2023-05-10T11:25:42;16.10;99.90
8420;DHT22;4247;48.550;8.822;2023-05-10T11:28:10;16.20;99.90
8420;DHT22;4247;48.550;8.822;2023-05-10T11:30:38;16.40;99.90
8420;DHT22;4247;48.550;8.822;2023-05-10T11:33:05;16.30;99.90
8420;DHT22;4247;48.550;8.822;2023-05-10T11:35:37;16.20;99.90
8420;DHT22;4247;48.550;8.822;2023-05-10T11:38:06;16.00;99.90
8420;DHT22;4247;48.550;8.822;2023-05-10T11:40:32;15.90;99.90
8420;DHT22;4247;48.550;8.822;2023-05-10T11:42:59;15.90;99.90
8420;DHT22;4247;48.550;8.822;2023-05-10T11:45:26;15.80;99.90
8420;DHT22;4247;48.550;8.822;2023-05-10T11:47:54;15.80;99.90
8420;DHT22;4247;48.550;8.822;2023-05-10T11:50:21;15.90;99.90
8420;DHT22;4247;48.550;8.822;2023-05-10T11:52:51;15.80;99.90
8420;DHT22;4247;48.550;8.822;2023-05-10T11:55:18;15.80;99.90
8420;DHT22;4247;48.550;8.822;2023-05-10T11:57:45;15.70;99.90
8420;DHT22;4247;48.550;8.822;2023-05-10T12:00:12;15.70;99.90
8420;DHT22;4247;48.550;8.822;2023-05-10T12:02:40;15.80;99.90
8420;DHT22;4247;48.550;8.822;2023-05-10T12:05:07;15.90;99.90
8420;DHT22;4247;48.550;8.822;2023-05-10T12:07:35;15.80;99.90
8420;DHT22;4247;48.550;8.822;2023-05-10T12:10:10;15.70;99.90
8420;DHT22;4247;48.550;8.822;2023-05-10T12:12:40;15.70;99.90
8420;DHT22;4247;48.550;8.822;2023-05-10T12:15:12;15.70;99.90
8420;DHT22;4247;48.550;8.822;2023-05-10T12:17:39;15.80;99.90
8420;DHT22;4247;48.550;8.822;2023-05-10T12:20:16;15.80;99.90
8420;DHT22;4247;48.550;8.822;2023-05-10T12:22:49;15.90;99.90
8420;DHT22;4247;48.550;8.822;2023-05-10T12:25:17;15.90;99.90
8420;DHT22;4247;48.550;8.822;2023-05-10T12:27:49;16.00;99.90
8420;DHT22;4247;48.550;8.822;2023-05-10T12:30:21;16.00;99.90
8420;DHT22;4247;48.550;8.822;2023-05-10T12:32:48;15.90;99.90
8420;DHT22;4247;48.550;8.822;2023-05-10T12:35:15;16.00;99.90
8420;DHT22;4247;48.550;8.822;2023-05-10T12:37:42;16.10;99.90
8420;DHT22;4247;48.550;8.822;2023-05-10T12:40:10;16.20;99.90
8420;DHT22;4247;48.550;8.822;2023-05-10T12:42:39;16.20;99.90
8420;DHT22;4247;48.550;8.822;2023-05-10T12:45:08;16.20;99.90
8420;DHT22;4247;48.550;8.822;2023-05-10T12:47:35;16.10;99.90
8420;DHT22;4247;48.550;8.822;2023-05-10T12:50:02;16.10;99.90
8420;DHT22;4247;48.550;8.822;2023-05-10T12:52:29;16.20;99.90
8420;DHT22;4247;48.550;8.822;2023-05-10T12:54:57;16.20;99.90
8420;DHT22;4247;48.550;8.822;2023-05-10T12:57:24;16.20;99.90
8420;DHT22;4247;48.550;8.822;2023-05-10T12:59:52;16.20;99.90
8420;DHT22;4247;48.550;8.822;2023-05-10T13:02:19;16.30;99.90
8420;DHT22;4247;48.550;8.822;2023-05-10T13:04:47;16.50;99.90
8420;DHT22;4247;48.550;8.822;2023-05-10T13:07:14;16.50;99.90
8420;DHT22;4247;48.550;8.822;2023-05-10T13:09:40;16.50;99.90
8420;DHT22;4247;48.550;8.822;2023-05-10T13:12:07;16.60;99.90
8420;DHT22;4247;48.550;8.822;2023-05-10T13:14:34;16.60;99.90
8420;DHT22;4247;48.550;8.822;2023-05-10T13:17:02;16.60;99.90
8420;DHT22;4247;48.550;8.822;2023-05-10T13:19:28;16.70;99.90
8420;DHT22;4247;48.550;8.822;2023-05-10T13:21:55;16.70;99.90
8420;DHT22;4247;48.550;8.822;2023-05-10T13:24:22;16.80;99.90
8420;DHT22;4247;48.550;8.822;2023-05-10T13:26:48;16.80;99.90
8420;DHT22;4247;48.550;8.822;2023-05-10T13:29:15;16.80;99.90
8420;DHT22;4247;48.550;8.822;2023-05-10T13:31:43;16.70;99.90
8420;DHT22;4247;48.550;8.822;2023-05-10T13:34:11;16.60;99.90
8420;DHT22;4247;48.550;8.822;2023-05-10T13:36:38;16.70;99.90
8420;DHT22;4247;48.550;8.822;2023-05-10T13:39:04;16.80;99.90
8420;DHT22;4247;48.550;8.822;2023-05-10T13:41:31;16.70;99.90
8420;DHT22;4247;48.550;8.822;2023-05-10T13:43:58;16.70;99.90
8420;DHT22;4247;48.550;8.822;2023-05-10T13:46:25;16.80;99.90
8420;DHT22;4247;48.550;8.822;2023-05-10T13:48:51;16.90;99.90
8420;DHT22;4247;48.550;8.822;2023-05-10T13:51:19;16.90;99.90
8420;DHT22;4247;48.550;8.822;2023-05-10T13:53:46;16.90;99.30
8420;DHT22;4247;48.550;8.822;2023-05-10T13:56:13;17.00;99.80
8420;DHT22;4247;48.550;8.822;2023-05-10T13:58:40;17.10;99.90
8420;DHT22;4247;48.550;8.822;2023-05-10T14:01:07;17.10;99.90
8420;DHT22;4247;48.550;8.822;2023-05-10T14:03:33;17.20;99.90
8420;DHT22;4247;48.550;8.822;2023-05-10T14:06:00;17.20;99.90
8420;DHT22;4247;48.550;8.822;2023-05-10T14:08:28;17.20;99.70
8420;DHT22;4247;48.550;8.822;2023-05-10T14:10:55;17.20;99.90
8420;DHT22;4247;48.550;8.822;2023-05-10T14:13:23;17.20;99.90
8420;DHT22;4247;48.550;8.822;2023-05-10T14:15:50;17.20;99.50
8420;DHT22;4247;48.550;8.822;2023-05-10T14:18:17;17.10;99.90
8420;DHT22;4247;48.550;8.822;2023-05-10T14:20:43;17.20;99.90
8420;DHT22;4247;48.550;8.822;2023-05-10T14:23:10;17.20;99.50
8420;DHT22;4247;48.550;8.822;2023-05-10T14:25:40;17.00;97.90
8420;DHT22;4247;48.550;8.822;2023-05-10T14:28:07;17.00;99.70
8420;DHT22;4247;48.550;8.822;2023-05-10T14:30:34;17.00;99.90
8420;DHT22;4247;48.550;8.822;2023-05-10T14:33:01;17.10;99.80
8420;DHT22;4247;48.550;8.822;2023-05-10T14:35:28;17.10;98.90
8420;DHT22;4247;48.550;8.822;2023-05-10T14:37:56;17.00;98.60
8420;DHT22;4247;48.550;8.822;2023-05-10T14:40:23;17.00;99.10
8420;DHT22;4247;48.550;8.822;2023-05-10T14:42:51;17.10;98.80
8420;DHT22;4247;48.550;8.822;2023-05-10T14:45:18;17.10;99.60
8420;DHT22;4247;48.550;8.822;2023-05-10T14:47:45;17.00;99.40
8420;DHT22;4247;48.550;8.822;2023-05-10T14:50:12;17.00;98.60
8420;DHT22;4247;48.550;8.822;2023-05-10T14:52:39;17.20;99.90
8420;DHT22;4247;48.550;8.822;2023-05-10T14:55:06;17.20;99.90
8420;DHT22;4247;48.550;8.822;2023-05-10T14:57:33;17.20;99.90
8420;DHT22;4247;48.550;8.822;2023-05-10T15:00:01;17.20;99.90
8420;DHT22;4247;48.550;8.822;2023-05-10T15:02:28;17.30;99.90
8420;DHT22;4247;48.550;8.822;2023-05-10T15:04:55;17.30;99.90
8420;DHT22;4247;48.550;8.822;2023-05-10T15:07:23;17.20;99.20
8420;DHT22;4247;48.550;8.822;2023-05-10T15:09:50;17.10;98.70
8420;DHT22;4247;48.550;8.822;2023-05-10T15:12:17;17.00;98.90
8420;DHT22;4247;48.550;8.822;2023-05-10T15:14:44;17.00;99.10
8420;DHT22;4247;48.550;8.822;2023-05-10T15:17:12;16.90;99.80
8420;DHT22;4247;48.550;8.822;2023-05-10T15:19:39;16.90;99.50
8420;DHT22;4247;48.550;8.822;2023-05-10T15:22:05;16.90;99.50
8420;DHT22;4247;48.550;8.822;2023-05-10T15:24:32;16.90;99.70
8420;DHT22;4247;48.550;8.822;2023-05-10T15:26:59;17.00;99.90
8420;DHT22;4247;48.550;8.822;2023-05-10T15:29:26;17.10;99.90
8420;DHT22;4247;48.550;8.822;2023-05-10T15:31:53;17.00;98.60
8420;DHT22;4247;48.550;8.822;2023-05-10T15:34:21;17.10;99.90
8420;DHT22;4247;48.550;8.822;2023-05-10T15:36:48;17.20;99.90
8420;DHT22;4247;48.550;8.822;2023-05-10T15:39:14;17.20;99.90
8420;DHT22;4247;48.550;8.822;2023-05-10T15:41:42;17.20;99.90
8420;DHT22;4247;48.550;8.822;2023-05-10T15:44:09;17.10;99.90
8420;DHT22;4247;48.550;8.822;2023-05-10T15:46:36;17.00;99.90
8420;DHT22;4247;48.550;8.822;2023-05-10T15:49:03;16.90;99.90
8420;DHT22;4247;48.550;8.822;2023-05-10T15:51:32;16.80;99.90
8420;DHT22;4247;48.550;8.822;2023-05-10T15:53:59;16.60;99.90
8420;DHT22;4247;48.550;8.822;2023-05-10T15:56:27;16.50;99.90
8420;DHT22;4247;48.550;8.822;2023-05-10T15:58:53;16.50;99.90
8420;DHT22;4247;48.550;8.822;2023-05-10T16:01:20;16.40;99.90
8420;DHT22;4247;48.550;8.822;2023-05-10T16:03:47;16.30;99.90
8420;DHT22;4247;48.550;8.822;2023-05-10T16:06:13;16.20;99.90
8420;DHT22;4247;48.550;8.822;2023-05-10T16:08:41;16.20;99.90